Time;durP1;ratioP1;P1;durP2;ratioP2;P2;SDS_P1;SDS_P2;PMS_P1;PMS_P2;Temp;Humidity;BMP_temperature;BMP_pressure;BME280_temperature;BME280_humidity;BME280_pressure;Samples;Min_cycle;Max_cycle;Signal;HPM_P1;HPM_P2
2021/09/28 00:00:49;;;;;;;11.57;5.40;;;15.30;99.90;;;;;;2080176;28;20087;-71
2021/09/28 00:01:50;;;;;;;9.63;4.88;;;15.30;99.90;;;;;;2080353;28;20079;-71
2021/09/28 00:02:50;;;;;;;10.30;4.88;;;15.30;99.90;;;;;;2080495;28;20097;-70
2021/09/28 00:03:51;;;;;;;10.57;4.88;;;15.30;99.90;;;;;;2080320;28;20035;-70
2021/09/28 00:04:52;;;;;;;5.25;3.67;;;15.30;99.90;;;;;;2079866;28;20061;-70
2021/09/28 00:05:52;;;;;;;11.82;5.28;;;15.30;99.90;;;;;;2079539;28;20041;-71
2021/09/28 00:06:53;;;;;;;8.68;4.97;;;15.30;99.90;;;;;;2082377;28;20044;-71
2021/09/28 00:07:53;;;;;;;6.68;4.15;;;15.30;99.90;;;;;;2080143;28;20405;-71
2021/09/28 00:08:54;;;;;;;10.90;4.05;;;15.30;99.90;;;;;;2079802;28;20049;-71
2021/09/28 00:09:54;;;;;;;10.40;4.75;;;15.30;99.90;;;;;;2080067;28;20104;-71
2021/09/28 00:10:55;;;;;;;8.63;4.10;;;15.20;99.90;;;;;;2080423;28;20383;-70
2021/09/28 00:11:56;;;;;;;10.85;5.00;;;15.20;99.90;;;;;;2079712;28;20052;-70
2021/09/28 00:12:56;;;;;;;7.45;4.43;;;15.20;99.90;;;;;;2079481;28;20033;-70
2021/09/28 00:13:58;;;;;;;14.07;5.57;;;15.20;99.90;;;;;;2080720;28;20026;-70
2021/09/28 00:14:59;;;;;;;16.40;5.82;;;15.20;99.90;;;;;;2080378;28;20056;-71
2021/09/28 00:15:59;;;;;;;9.75;4.53;;;15.20;99.90;;;;;;2080521;28;20856;-71
2021/09/28 00:17:00;;;;;;;10.07;4.55;;;15.20;99.90;;;;;;2081094;28;20014;-71
2021/09/28 00:18:01;;;;;;;12.15;4.75;;;15.20;99.90;;;;;;2080205;28;20480;-71
2021/09/28 00:19:02;;;;;;;9.23;5.07;;;15.20;99.90;;;;;;2079758;28;20068;-71
2021/09/28 00:20:04;;;;;;;10.50;4.68;;;15.20;99.90;;;;;;2080336;28;20478;-71
2021/09/28 00:21:04;;;;;;;6.68;4.18;;;15.20;99.90;;;;;;2085296;28;20067;-70
2021/09/28 00:22:05;;;;;;;12.25;5.15;;;15.20;99.90;;;;;;2085920;28;20036;-71
2021/09/28 00:23:13;;;;;;;7.82;4.88;;;15.20;99.90;;;;;;2089157;28;20070;-71
2021/09/28 00:24:14;;;;;;;9.60;5.35;;;15.20;99.90;;;;;;2087927;28;20029;-71
2021/09/28 00:25:15;;;;;;;11.80;4.30;;;15.10;99.90;;;;;;2085842;28;20017;-71
2021/09/28 00:26:16;;;;;;;11.38;3.92;;;15.10;99.90;;;;;;2086275;28;20119;-71
2021/09/28 00:27:17;;;;;;;11.48;4.13;;;15.10;99.90;;;;;;2079176;28;20497;-71
2021/09/28 00:28:17;;;;;;;10.27;4.82;;;15.10;99.90;;;;;;2079872;28;20033;-70
2021/09/28 00:29:18;;;;;;;11.50;4.93;;;15.10;99.90;;;;;;2083157;28;20020;-70
2021/09/28 00:30:19;;;;;;;8.35;3.75;;;15.10;99.90;;;;;;2080479;28;20025;-70
2021/09/28 00:31:19;;;;;;;8.85;4.70;;;15.10;99.90;;;;;;2080024;28;20031;-70
2021/09/28 00:32:20;;;;;;;9.25;4.40;;;15.10;99.90;;;;;;2080121;28;20381;-70
2021/09/28 00:33:21;;;;;;;11.75;5.35;;;15.10;99.90;;;;;;2080094;28;20025;-71
2021/09/28 00:34:21;;;;;;;10.18;4.28;;;15.10;99.90;;;;;;2080438;28;20092;-71
2021/09/28 00:35:22;;;;;;;7.00;3.83;;;15.00;99.90;;;;;;2080134;28;20045;-71
2021/09/28 00:36:23;;;;;;;11.63;4.93;;;15.00;99.90;;;;;;2083382;28;20501;-70
2021/09/28 00:37:24;;;;;;;11.85;4.38;;;15.10;99.90;;;;;;2079976;28;20021;-70
2021/09/28 00:38:25;;;;;;;10.00;4.88;;;15.00;99.90;;;;;;2086757;28;20028;-70
2021/09/28 00:39:25;;;;;;;10.45;4.50;;;15.00;99.90;;;;;;2084553;28;20101;-70
2021/09/28 00:40:26;;;;;;;10.25;4.22;;;15.00;99.90;;;;;;2079654;28;20029;-71
2021/09/28 00:41:26;;;;;;;10.48;4.38;;;15.00;99.90;;;;;;2079562;28;20030;-71
2021/09/28 00:42:27;;;;;;;9.77;5.00;;;15.00;99.90;;;;;;2080042;28;20503;-70
2021/09/28 00:43:44;;;;;;;11.00;5.15;;;15.00;99.90;;;;;;2079926;28;20017;-70
2021/09/28 00:44:45;;;;;;;9.43;5.22;;;15.00;99.90;;;;;;2080106;28;20067;-71
2021/09/28 00:45:46;;;;;;;17.02;5.82;;;14.90;99.90;;;;;;2080007;28;20784;-71
2021/09/28 00:46:46;;;;;;;11.77;5.63;;;14.90;99.90;;;;;;2080321;28;20397;-70
2021/09/28 00:47:47;;;;;;;7.25;4.75;;;14.90;99.90;;;;;;2079867;28;20060;-70
2021/09/28 00:48:48;;;;;;;8.93;4.90;;;14.90;99.90;;;;;;2079609;28;20030;-71
2021/09/28 00:49:48;;;;;;;13.63;5.03;;;14.90;99.90;;;;;;2079539;28;20025;-71
2021/09/28 00:50:49;;;;;;;10.25;5.07;;;15.00;99.90;;;;;;2079280;28;20087;-70
2021/09/28 00:51:50;;;;;;;8.27;4.32;;;14.90;99.90;;;;;;2080164;28;20025;-70
2021/09/28 00:52:51;;;;;;;7.63;4.35;;;14.90;99.90;;;;;;2080073;28;20049;-70
2021/09/28 00:53:54;;;;;;;8.10;4.72;;;14.90;99.90;;;;;;2080035;28;20036;-70
2021/09/28 00:54:55;;;;;;;10.50;4.38;;;14.90;99.90;;;;;;2083225;28;20020;-71
2021/09/28 00:55:55;;;;;;;9.30;4.13;;;14.90;99.90;;;;;;2082538;28;20068;-71
2021/09/28 00:56:56;;;;;;;10.30;4.70;;;14.90;99.90;;;;;;2081136;28;20032;-71
2021/09/28 00:57:57;;;;;;;10.00;5.10;;;14.90;99.90;;;;;;2079799;28;20108;-71
2021/09/28 00:59:00;;;;;;;10.07;4.82;;;14.90;99.90;;;;;;2079286;28;20029;-71
2021/09/28 01:00:03;;;;;;;9.25;4.38;;;14.90;99.90;;;;;;2079796;28;20020;-70
2021/09/28 01:01:05;;;;;;;8.05;4.20;;;14.80;99.90;;;;;;2080698;28;20037;-71
2021/09/28 01:02:07;;;;;;;9.82;4.10;;;14.80;99.90;;;;;;2080159;28;20125;-71
2021/09/28 01:03:09;;;;;;;10.70;4.75;;;14.80;99.90;;;;;;2080204;28;20022;-72
2021/09/28 01:04:10;;;;;;;9.95;3.90;;;14.80;99.90;;;;;;2080108;28;20033;-71
2021/09/28 01:05:11;;;;;;;7.40;3.40;;;14.80;99.90;;;;;;2084263;28;20620;-71
2021/09/28 01:06:11;;;;;;;8.82;3.83;;;14.80;99.90;;;;;;2080135;28;20103;-71
2021/09/28 01:07:12;;;;;;;12.63;4.13;;;14.80;99.90;;;;;;2078819;28;20386;-71
2021/09/28 01:08:12;;;;;;;10.23;4.18;;;14.80;99.90;;;;;;2078719;28;20524;-71
2021/09/28 01:09:13;;;;;;;8.63;3.45;;;14.80;99.90;;;;;;2079882;28;20025;-71
2021/09/28 01:10:14;;;;;;;5.68;2.90;;;14.80;99.90;;;;;;2080092;28;20099;-71
2021/09/28 01:11:15;;;;;;;5.55;3.55;;;14.70;99.90;;;;;;2079911;28;20025;-71
2021/09/28 01:12:15;;;;;;;7.18;3.53;;;14.80;99.90;;;;;;2079252;28;20124;-71
2021/09/28 01:13:16;;;;;;;8.25;3.88;;;14.80;99.90;;;;;;2080331;28;20108;-71
2021/09/28 01:14:17;;;;;;;9.43;3.50;;;14.70;99.90;;;;;;2079533;28;20017;-71
2021/09/28 01:15:17;;;;;;;7.82;4.20;;;14.70;99.90;;;;;;2079790;28;20022;-71
2021/09/28 01:16:18;;;;;;;7.85;3.55;;;14.70;99.90;;;;;;2080942;28;20017;-71
2021/09/28 01:17:19;;;;;;;9.77;3.78;;;14.70;99.90;;;;;;2087866;28;20099;-71
2021/09/28 01:18:20;;;;;;;7.20;4.20;;;14.70;99.90;;;;;;2087607;28;20032;-71
2021/09/28 01:19:22;;;;;;;9.73;3.88;;;14.70;99.90;;;;;;2088076;28;20048;-71
2021/09/28 01:20:22;;;;;;;8.85;3.92;;;14.70;99.90;;;;;;2088254;28;20475;-71
2021/09/28 01:21:23;;;;;;;10.02;3.65;;;14.70;99.90;;;;;;2088030;28;20358;-71
2021/09/28 01:22:24;;;;;;;9.48;3.72;;;14.60;99.90;;;;;;2088257;28;20055;-71
2021/09/28 01:23:24;;;;;;;9.85;3.60;;;14.70;99.90;;;;;;2087906;28;20024;-71
2021/09/28 01:24:26;;;;;;;12.32;4.07;;;14.60;99.90;;;;;;2088172;28;20053;-71
2021/09/28 01:25:27;;;;;;;9.90;3.78;;;14.60;99.90;;;;;;2087824;28;20027;-71
2021/09/28 01:26:27;;;;;;;8.35;3.60;;;14.60;99.90;;;;;;2088340;28;20032;-71
2021/09/28 01:27:34;;;;;;;7.90;3.58;;;14.60;99.90;;;;;;2086164;28;20556;-71
2021/09/28 01:28:37;;;;;;;7.25;3.00;;;14.60;99.90;;;;;;2080502;28;20029;-71
2021/09/28 01:29:37;;;;;;;7.82;3.00;;;14.60;99.90;;;;;;2087370;28;20381;-71
2021/09/28 01:30:38;;;;;;;8.52;3.03;;;14.60;99.90;;;;;;2088402;28;20037;-71
2021/09/28 01:31:39;;;;;;;10.50;4.18;;;14.60;99.90;;;;;;2082257;28;20440;-71
2021/09/28 01:32:39;;;;;;;11.07;3.92;;;14.60;99.90;;;;;;2079842;28;20026;-71
2021/09/28 01:33:40;;;;;;;11.07;3.35;;;14.60;99.90;;;;;;2079812;28;20025;-71
2021/09/28 01:34:41;;;;;;;7.43;3.25;;;14.60;99.90;;;;;;2080066;28;20025;-71
2021/09/28 01:35:41;;;;;;;13.88;4.07;;;14.60;99.90;;;;;;2080009;28;20034;-71
2021/09/28 01:36:43;;;;;;;10.23;4.75;;;14.60;99.90;;;;;;2079997;28;20686;-71
2021/09/28 01:37:43;;;;;;;9.45;3.42;;;14.60;99.90;;;;;;2079552;28;20024;-71
2021/09/28 01:38:44;;;;;;;8.75;3.17;;;14.60;99.90;;;;;;2079184;28;20040;-71
2021/09/28 01:39:44;;;;;;;10.55;3.67;;;14.60;99.90;;;;;;2079651;28;20497;-71
2021/09/28 01:40:45;;;;;;;6.40;3.13;;;14.60;99.90;;;;;;2079780;28;20377;-71
2021/09/28 01:41:46;;;;;;;10.95;3.53;;;14.50;99.90;;;;;;2083434;28;20053;-71
2021/09/28 01:42:47;;;;;;;12.52;2.97;;;14.50;99.90;;;;;;2083362;28;20063;-72
2021/09/28 01:43:48;;;;;;;9.95;4.10;;;14.50;99.90;;;;;;2079005;28;20025;-71
2021/09/28 01:44:48;;;;;;;7.07;3.00;;;14.50;99.90;;;;;;2079896;28;20036;-71
2021/09/28 01:45:58;;;;;;;6.85;3.22;;;14.50;99.90;;;;;;2079687;28;20025;-71
2021/09/28 01:46:59;;;;;;;8.57;3.40;;;14.50;99.90;;;;;;2080108;28;20022;-71
2021/09/28 01:47:59;;;;;;;5.07;2.85;;;14.50;99.90;;;;;;2078716;28;20492;-71
2021/09/28 01:49:01;;;;;;;9.18;3.97;;;14.50;99.90;;;;;;2078473;28;20029;-71
2021/09/28 01:50:03;;;;;;;7.55;2.90;;;14.50;99.90;;;;;;2079019;28;20515;-71
2021/09/28 01:51:03;;;;;;;7.07;3.22;;;14.50;99.90;;;;;;2084785;28;20087;-71
2021/09/28 01:52:04;;;;;;;9.77;3.38;;;14.50;99.90;;;;;;2088061;28;20112;-71
2021/09/28 01:53:05;;;;;;;6.93;2.67;;;14.50;99.90;;;;;;2087948;28;20500;-71
2021/09/28 01:54:07;;;;;;;5.75;3.10;;;14.40;99.90;;;;;;2087952;28;20313;-71
2021/09/28 01:55:07;;;;;;;10.32;3.17;;;14.50;99.90;;;;;;2087920;28;20108;-71
2021/09/28 01:56:20;;;;;;;7.75;3.22;;;14.40;99.90;;;;;;2081812;28;20040;-71
2021/09/28 01:57:20;;;;;;;11.23;3.45;;;14.50;99.90;;;;;;2087535;28;20463;-71
2021/09/28 01:58:21;;;;;;;5.90;2.78;;;14.40;99.90;;;;;;2086990;28;20088;-71
2021/09/28 01:59:21;;;;;;;8.25;3.20;;;14.40;99.90;;;;;;2082359;28;20022;-71
2021/09/28 02:00:23;;;;;;;9.35;3.13;;;14.40;99.90;;;;;;2087504;28;20056;-71
2021/09/28 02:01:25;;;;;;;6.95;3.70;;;14.40;99.90;;;;;;2089098;28;20068;-71
2021/09/28 02:02:25;;;;;;;6.18;2.80;;;14.40;99.90;;;;;;2083260;28;20022;-72
2021/09/28 02:03:26;;;;;;;8.98;2.92;;;14.40;99.90;;;;;;2080953;28;20064;-71
2021/09/28 02:04:26;;;;;;;6.05;2.95;;;14.40;99.90;;;;;;2082032;28;20112;-71
2021/09/28 02:05:27;;;;;;;5.72;2.80;;;14.40;99.90;;;;;;2085368;28;20444;-71
2021/09/28 02:06:36;;;;;;;6.50;2.95;;;14.40;99.90;;;;;;2080926;28;20048;-71
2021/09/28 02:07:36;;;;;;;9.50;3.20;;;14.40;99.90;;;;;;2080991;28;20030;-71
2021/09/28 02:08:37;;;;;;;9.43;2.67;;;14.40;99.90;;;;;;2080125;28;20036;-71
2021/09/28 02:09:37;;;;;;;8.48;2.72;;;14.40;99.90;;;;;;2081150;28;20473;-71
2021/09/28 02:10:38;;;;;;;5.53;2.78;;;14.40;99.90;;;;;;2082808;28;20055;-71
2021/09/28 02:11:38;;;;;;;5.72;2.53;;;14.40;99.90;;;;;;2087412;28;20029;-71
2021/09/28 02:12:39;;;;;;;11.32;3.67;;;14.40;99.90;;;;;;2080911;28;20416;-71
2021/09/28 02:13:40;;;;;;;7.93;3.00;;;14.30;99.90;;;;;;2082514;28;20033;-71
2021/09/28 02:14:40;;;;;;;8.88;2.67;;;14.30;99.90;;;;;;2080899;28;20076;-71
2021/09/28 02:15:41;;;;;;;10.40;2.92;;;14.30;99.90;;;;;;2089539;28;20071;-71
2021/09/28 02:16:45;;;;;;;8.75;2.65;;;14.30;99.90;;;;;;2089555;28;20024;-71
2021/09/28 02:17:46;;;;;;;7.18;2.92;;;14.30;99.90;;;;;;2090993;28;20081;-71
2021/09/28 02:18:46;;;;;;;6.93;2.83;;;14.30;99.90;;;;;;2083731;28;20057;-72
2021/09/28 02:19:47;;;;;;;8.52;2.88;;;14.30;99.90;;;;;;2080142;28;20022;-71
2021/09/28 02:20:47;;;;;;;8.18;2.90;;;14.30;99.90;;;;;;2080313;28;20413;-71
2021/09/28 02:21:48;;;;;;;8.10;2.75;;;14.30;99.90;;;;;;2080870;28;20076;-71
2021/09/28 02:22:48;;;;;;;8.80;3.03;;;14.30;99.90;;;;;;2081053;28;20032;-71
2021/09/28 02:23:49;;;;;;;6.55;2.67;;;14.30;99.90;;;;;;2080281;28;20040;-71
2021/09/28 02:24:50;;;;;;;6.72;2.30;;;14.30;99.90;;;;;;2082086;28;20028;-72
2021/09/28 02:25:51;;;;;;;6.72;2.50;;;14.30;99.90;;;;;;2089172;28;20159;-71
2021/09/28 02:26:51;;;;;;;11.45;2.85;;;14.30;99.90;;;;;;2082863;28;20121;-71
2021/09/28 02:27:52;;;;;;;9.57;3.60;;;14.30;99.90;;;;;;2080720;28;20029;-71
2021/09/28 02:28:52;;;;;;;5.15;2.60;;;14.30;99.90;;;;;;2080482;28;20082;-71
2021/09/28 02:29:53;;;;;;;5.53;2.42;;;14.30;99.90;;;;;;2081878;28;20573;-71
2021/09/28 02:30:54;;;;;;;5.18;2.55;;;14.30;99.90;;;;;;2090152;28;20480;-71
2021/09/28 02:31:55;;;;;;;7.57;2.60;;;14.30;99.90;;;;;;2082605;28;20022;-71
2021/09/28 02:32:55;;;;;;;9.35;2.55;;;14.20;99.90;;;;;;2082452;28;20053;-71
2021/09/28 02:33:56;;;;;;;8.48;2.60;;;14.30;99.90;;;;;;2082365;28;20496;-71
2021/09/28 02:34:57;;;;;;;6.47;2.28;;;14.30;99.90;;;;;;2082152;28;20022;-71
2021/09/28 02:35:57;;;;;;;10.77;3.22;;;14.20;99.90;;;;;;2082310;28;20026;-71
2021/09/28 02:36:58;;;;;;;11.15;3.00;;;14.20;99.90;;;;;;2082596;28;20024;-71
2021/09/28 02:37:59;;;;;;;8.50;2.72;;;14.20;99.90;;;;;;2082126;28;20060;-71
2021/09/28 02:39:00;;;;;;;8.40;2.83;;;14.20;99.90;;;;;;2082176;28;20022;-71
2021/09/28 02:40:02;;;;;;;9.40;2.90;;;14.20;99.90;;;;;;2082924;28;20021;-71
2021/09/28 02:41:02;;;;;;;11.90;2.58;;;14.20;99.90;;;;;;2082498;28;20080;-71
2021/09/28 02:42:04;;;;;;;4.97;2.10;;;14.20;99.90;;;;;;2082113;28;20056;-71
2021/09/28 02:43:04;;;;;;;7.38;2.58;;;14.20;99.90;;;;;;2082192;28;20412;-71
2021/09/28 02:44:05;;;;;;;8.70;3.00;;;14.20;99.90;;;;;;2082394;28;20029;-71
2021/09/28 02:45:06;;;;;;;10.05;3.38;;;14.20;99.90;;;;;;2082523;28;20037;-71
2021/09/28 02:46:07;;;;;;;12.85;3.65;;;14.20;99.90;;;;;;2082193;28;20053;-71
2021/09/28 02:47:08;;;;;;;6.68;2.72;;;14.20;99.90;;;;;;2082182;28;20694;-71
2021/09/28 02:48:08;;;;;;;6.32;2.60;;;14.20;99.90;;;;;;2081780;28;20415;-71
2021/09/28 02:49:09;;;;;;;8.57;3.10;;;14.20;99.90;;;;;;2082211;28;20044;-71
2021/09/28 02:50:10;;;;;;;11.38;3.05;;;14.20;99.90;;;;;;2082214;28;20032;-72
2021/09/28 02:51:10;;;;;;;11.52;3.28;;;14.10;99.90;;;;;;2089130;28;20033;-71
2021/09/28 02:52:11;;;;;;;6.35;2.80;;;14.20;99.90;;;;;;2090471;28;20032;-71
2021/09/28 02:53:12;;;;;;;6.28;2.50;;;14.20;99.90;;;;;;2089909;28;20099;-71
2021/09/28 02:54:12;;;;;;;7.88;2.50;;;14.20;99.90;;;;;;2082186;28;20080;-71
2021/09/28 02:55:13;;;;;;;5.53;2.40;;;14.20;99.90;;;;;;2082256;28;20017;-71
2021/09/28 02:56:14;;;;;;;7.97;2.80;;;14.10;99.90;;;;;;2082287;28;20021;-71
2021/09/28 02:57:14;;;;;;;9.07;2.75;;;14.10;99.90;;;;;;2082080;28;20029;-71
2021/09/28 02:58:15;;;;;;;7.22;2.72;;;14.10;99.90;;;;;;2081024;28;20032;-71
2021/09/28 02:59:16;;;;;;;6.93;2.47;;;14.10;99.90;;;;;;2082191;28;20026;-71
2021/09/28 03:00:17;;;;;;;7.38;2.63;;;14.10;99.90;;;;;;2082302;28;20378;-71
2021/09/28 03:01:17;;;;;;;7.85;2.78;;;14.10;99.90;;;;;;2082108;28;20112;-71
2021/09/28 03:02:18;;;;;;;5.47;2.42;;;14.10;99.90;;;;;;2080282;28;20477;-71
2021/09/28 03:03:18;;;;;;;10.27;2.65;;;14.10;99.90;;;;;;2080446;28;20029;-71
2021/09/28 03:04:19;;;;;;;10.93;2.85;;;14.10;99.90;;;;;;2083233;28;20354;-71
2021/09/28 03:05:20;;;;;;;8.07;2.70;;;14.10;99.90;;;;;;2086503;28;20724;-71
2021/09/28 03:06:20;;;;;;;10.25;2.78;;;14.10;99.90;;;;;;2081364;28;20030;-71
2021/09/28 03:07:21;;;;;;;9.48;2.83;;;14.00;99.90;;;;;;2080942;28;20025;-71
2021/09/28 03:08:21;;;;;;;10.05;2.45;;;14.00;99.90;;;;;;2086951;28;20028;-71
2021/09/28 03:09:22;;;;;;;10.90;3.17;;;14.00;99.90;;;;;;2081153;28;20030;-71
2021/09/28 03:10:22;;;;;;;7.93;2.72;;;14.00;99.90;;;;;;2080906;28;20028;-71
2021/09/28 03:11:26;;;;;;;8.00;2.92;;;14.00;99.90;;;;;;2079985;28;20034;-71
2021/09/28 03:12:27;;;;;;;9.10;3.13;;;14.00;99.90;;;;;;2080420;28;20638;-71
2021/09/28 03:13:27;;;;;;;8.98;2.90;;;14.00;99.90;;;;;;2080411;28;20033;-71
2021/09/28 03:14:28;;;;;;;11.43;3.17;;;14.00;99.90;;;;;;2080975;28;20108;-71
2021/09/28 03:15:29;;;;;;;5.80;2.33;;;14.00;99.90;;;;;;2080551;28;20405;-71
2021/09/28 03:16:29;;;;;;;6.57;2.33;;;14.00;99.90;;;;;;2082048;28;20125;-71
2021/09/28 03:17:30;;;;;;;6.43;2.53;;;14.00;99.90;;;;;;2080538;28;20022;-71
2021/09/28 03:18:30;;;;;;;8.10;3.00;;;14.00;99.90;;;;;;2080333;28;20037;-71
2021/09/28 03:19:32;;;;;;;8.25;2.90;;;14.00;99.90;;;;;;2080634;28;20454;-71
2021/09/28 03:20:32;;;;;;;8.80;2.53;;;14.00;99.90;;;;;;2080013;28;20026;-71
2021/09/28 03:21:33;;;;;;;9.00;2.80;;;14.00;99.90;;;;;;2080254;28;20061;-71
2021/09/28 03:22:33;;;;;;;8.68;2.88;;;14.00;99.90;;;;;;2083519;28;20025;-71
2021/09/28 03:23:34;;;;;;;8.80;2.63;;;14.00;99.90;;;;;;2080675;28;20033;-71
2021/09/28 03:24:35;;;;;;;8.38;2.45;;;14.00;99.90;;;;;;2080573;28;20531;-72
2021/09/28 03:25:35;;;;;;;9.75;2.58;;;14.00;99.90;;;;;;2080646;28;20679;-71
2021/09/28 03:26:36;;;;;;;6.40;2.60;;;14.00;99.90;;;;;;2085443;28;20028;-71
2021/09/28 03:27:37;;;;;;;12.93;3.45;;;14.00;99.90;;;;;;2089090;28;20477;-71
2021/09/28 03:28:38;;;;;;;7.25;2.33;;;14.00;99.90;;;;;;2080152;28;20083;-71
2021/09/28 03:29:38;;;;;;;10.07;2.92;;;14.00;99.90;;;;;;2079660;28;20037;-71
2021/09/28 03:30:39;;;;;;;7.22;2.78;;;14.00;99.90;;;;;;2080102;28;20107;-71
2021/09/28 03:31:40;;;;;;;7.13;2.50;;;14.00;99.90;;;;;;2080382;28;20033;-71
2021/09/28 03:32:40;;;;;;;13.07;3.03;;;14.00;99.90;;;;;;2080779;28;20025;-71
2021/09/28 03:33:41;;;;;;;8.45;2.65;;;14.00;99.90;;;;;;2080661;28;20113;-71
2021/09/28 03:34:41;;;;;;;10.15;2.65;;;14.00;99.90;;;;;;2080882;28;20026;-71
2021/09/28 03:35:42;;;;;;;8.68;2.70;;;14.00;99.90;;;;;;2080594;28;20030;-71
2021/09/28 03:36:42;;;;;;;7.78;2.70;;;14.00;99.90;;;;;;2085407;28;20485;-71
2021/09/28 03:37:43;;;;;;;10.15;3.50;;;14.00;99.90;;;;;;2077050;28;20442;-71
2021/09/28 03:38:43;;;;;;;10.80;2.45;;;14.00;99.90;;;;;;2079295;28;20026;-71
2021/09/28 03:39:44;;;;;;;7.68;2.95;;;13.90;99.90;;;;;;2080782;28;20482;-72
2021/09/28 03:40:45;;;;;;;7.43;2.50;;;13.90;99.90;;;;;;2079898;28;20071;-72
2021/09/28 03:41:45;;;;;;;5.97;2.08;;;14.00;99.90;;;;;;2080776;28;20025;-71
2021/09/28 03:42:47;;;;;;;5.13;2.40;;;14.00;99.90;;;;;;2080211;28;20640;-71
2021/09/28 03:43:47;;;;;;;6.03;2.40;;;13.90;99.90;;;;;;2080799;28;20053;-71
2021/09/28 03:44:48;;;;;;;6.53;2.63;;;13.90;99.90;;;;;;2080420;28;20030;-72
2021/09/28 03:45:48;;;;;;;10.95;2.88;;;13.90;99.90;;;;;;2079865;28;20061;-71
2021/09/28 03:46:49;;;;;;;5.13;2.25;;;13.90;99.90;;;;;;2079844;28;20064;-71
2021/09/28 03:47:50;;;;;;;8.55;2.10;;;13.90;99.90;;;;;;2080744;28;20656;-71
2021/09/28 03:48:50;;;;;;;10.40;3.03;;;13.90;99.90;;;;;;2079905;28;20031;-71
2021/09/28 03:49:51;;;;;;;8.25;2.45;;;13.90;99.90;;;;;;2080639;28;20109;-71
2021/09/28 03:50:51;;;;;;;8.13;2.15;;;13.90;99.90;;;;;;2080490;28;20071;-71
2021/09/28 03:51:52;;;;;;;10.45;2.63;;;13.90;99.90;;;;;;2080741;28;20021;-71
2021/09/28 03:52:53;;;;;;;10.30;2.78;;;13.90;99.90;;;;;;2080136;28;20033;-71
2021/09/28 03:53:53;;;;;;;7.63;2.30;;;13.90;99.90;;;;;;2080766;28;20029;-71
2021/09/28 03:54:54;;;;;;;7.80;2.90;;;13.90;99.90;;;;;;2080573;28;20026;-72
2021/09/28 03:55:55;;;;;;;8.43;2.85;;;13.90;99.90;;;;;;2079564;28;20018;-71
2021/09/28 03:56:55;;;;;;;12.27;3.25;;;13.90;99.90;;;;;;2083338;28;20637;-71
2021/09/28 03:57:57;;;;;;;14.30;3.15;;;13.90;99.90;;;;;;2086797;28;20029;-71
2021/09/28 03:58:57;;;;;;;7.40;2.90;;;13.90;99.90;;;;;;2084590;28;20013;-71
2021/09/28 03:59:58;;;;;;;9.05;2.83;;;13.90;99.90;;;;;;2087198;28;20036;-71
2021/09/28 04:00:58;;;;;;;6.72;2.22;;;13.90;99.90;;;;;;2081839;28;20026;-71
2021/09/28 04:01:59;;;;;;;6.13;2.33;;;13.90;99.90;;;;;;2080571;28;20041;-71
2021/09/28 04:03:04;;;;;;;8.23;3.00;;;13.90;99.90;;;;;;2080028;28;20393;-71
2021/09/28 04:04:04;;;;;;;10.98;2.53;;;13.90;99.90;;;;;;2083411;28;20028;-71
2021/09/28 04:05:05;;;;;;;6.72;2.33;;;13.90;99.90;;;;;;2087067;28;20021;-71
2021/09/28 04:06:06;;;;;;;4.63;2.08;;;13.90;99.90;;;;;;2088187;28;20705;-71
2021/09/28 04:07:06;;;;;;;9.68;2.38;;;13.90;99.90;;;;;;2084032;28;20025;-71
2021/09/28 04:08:07;;;;;;;8.68;2.60;;;13.90;99.90;;;;;;2080035;28;20025;-71
2021/09/28 04:09:07;;;;;;;8.40;2.22;;;13.90;99.90;;;;;;2080306;28;20549;-71
2021/09/28 04:10:10;;;;;;;7.70;3.28;;;13.90;99.90;;;;;;2080395;28;20025;-71
2021/09/28 04:11:11;;;;;;;8.25;2.78;;;13.90;99.90;;;;;;2080161;28;20029;-71
2021/09/28 04:12:11;;;;;;;8.52;2.35;;;13.90;99.90;;;;;;2080349;28;20481;-71
2021/09/28 04:13:12;;;;;;;10.27;3.08;;;13.90;99.90;;;;;;2080302;28;20044;-71
2021/09/28 04:14:16;;;;;;;7.65;2.63;;;13.90;99.90;;;;;;2080527;28;20040;-71
2021/09/28 04:15:20;;;;;;;9.13;2.88;;;13.90;99.90;;;;;;2080445;28;20461;-71
2021/09/28 04:16:21;;;;;;;7.97;2.40;;;13.80;99.90;;;;;;2080836;28;20569;-71
2021/09/28 04:17:21;;;;;;;11.95;3.00;;;13.80;99.90;;;;;;2083406;28;20020;-71
2021/09/28 04:18:22;;;;;;;8.70;3.05;;;13.80;99.90;;;;;;2094203;28;20033;-71
2021/09/28 04:19:22;;;;;;;7.68;2.50;;;13.80;99.90;;;;;;2090864;28;20052;-71
2021/09/28 04:20:23;;;;;;;7.97;2.72;;;13.80;99.90;;;;;;2084321;28;20013;-71
2021/09/28 04:21:27;;;;;;;9.23;2.70;;;13.80;99.90;;;;;;2093685;28;20073;-71
2021/09/28 04:22:27;;;;;;;5.45;2.15;;;13.80;99.90;;;;;;2085065;28;20036;-71
2021/09/28 04:23:28;;;;;;;7.20;2.90;;;13.80;99.90;;;;;;2087715;28;20017;-71
2021/09/28 04:24:30;;;;;;;16.92;3.60;;;13.80;99.90;;;;;;2080399;28;20062;-72
2021/09/28 04:25:31;;;;;;;11.90;3.10;;;13.80;99.90;;;;;;2080363;28;20079;-71
2021/09/28 04:26:33;;;;;;;12.77;3.03;;;13.80;99.90;;;;;;2079101;28;20053;-71
2021/09/28 04:27:35;;;;;;;9.02;3.35;;;13.80;99.90;;;;;;2079586;28;20026;-71
2021/09/28 04:28:35;;;;;;;6.68;2.45;;;13.80;99.90;;;;;;2079565;28;20377;-72
2021/09/28 04:29:37;;;;;;;5.28;2.50;;;13.80;99.90;;;;;;2086484;28;20060;-71
2021/09/28 04:30:38;;;;;;;9.48;2.42;;;13.80;99.90;;;;;;2087838;28;20105;-71
2021/09/28 04:31:38;;;;;;;8.07;2.60;;;13.80;99.90;;;;;;2083350;28;20078;-71
2021/09/28 04:32:39;;;;;;;6.32;2.30;;;13.80;99.90;;;;;;2085381;28;20121;-71
2021/09/28 04:33:39;;;;;;;9.85;2.60;;;13.80;99.90;;;;;;2085179;28;20020;-71
2021/09/28 04:34:40;;;;;;;10.27;3.00;;;13.80;99.90;;;;;;2085990;28;20355;-71
2021/09/28 04:35:41;;;;;;;12.77;3.10;;;13.80;99.90;;;;;;2088318;28;20495;-71
2021/09/28 04:36:41;;;;;;;6.10;2.92;;;13.80;99.90;;;;;;2084403;28;20031;-71
2021/09/28 04:37:42;;;;;;;10.18;3.63;;;13.80;99.90;;;;;;2087716;28;20024;-71
2021/09/28 04:38:42;;;;;;;13.77;2.55;;;13.80;99.90;;;;;;2088493;28;20089;-70
2021/09/28 04:39:43;;;;;;;8.57;2.70;;;13.80;99.90;;;;;;2084502;28;20104;-70
2021/09/28 04:40:43;;;;;;;13.98;3.10;;;13.80;99.90;;;;;;2084173;28;20028;-70
2021/09/28 04:41:44;;;;;;;7.25;2.63;;;13.80;99.90;;;;;;2089250;28;20507;-71
2021/09/28 04:42:44;;;;;;;9.75;2.95;;;13.70;99.90;;;;;;2088253;28;20038;-71
2021/09/28 04:43:45;;;;;;;13.07;3.47;;;13.80;99.90;;;;;;2088647;28;20032;-71
2021/09/28 04:44:45;;;;;;;10.00;3.03;;;13.80;99.90;;;;;;2088276;28;20048;-71
2021/09/28 04:45:46;;;;;;;8.57;3.08;;;13.70;99.90;;;;;;2084896;28;20115;-71
2021/09/28 04:46:46;;;;;;;8.57;2.50;;;13.70;99.90;;;;;;2084950;28;20036;-70
2021/09/28 04:47:47;;;;;;;8.15;3.45;;;13.70;99.90;;;;;;2081360;28;20486;-71
2021/09/28 04:48:48;;;;;;;5.05;2.80;;;13.80;99.90;;;;;;2084489;28;20044;-71
2021/09/28 04:49:48;;;;;;;13.90;3.55;;;13.70;99.90;;;;;;2087682;28;20029;-71
2021/09/28 04:50:52;;;;;;;10.43;2.85;;;13.80;99.90;;;;;;2082270;28;20036;-71
2021/09/28 04:51:53;;;;;;;11.68;3.15;;;13.80;99.90;;;;;;2084674;28;20099;-71
2021/09/28 04:52:53;;;;;;;10.68;2.88;;;13.70;99.90;;;;;;2084671;28;20076;-71
2021/09/28 04:53:54;;;;;;;9.15;2.80;;;13.70;99.90;;;;;;2085239;28;20037;-71
2021/09/28 04:54:54;;;;;;;8.07;3.15;;;13.80;99.90;;;;;;2085286;28;20025;-71
2021/09/28 04:55:55;;;;;;;11.00;3.28;;;13.70;99.90;;;;;;2080894;28;20465;-70
2021/09/28 04:56:55;;;;;;;11.48;2.92;;;13.70;99.90;;;;;;2085508;28;20023;-70
2021/09/28 04:57:56;;;;;;;10.95;3.20;;;13.70;99.90;;;;;;2084931;28;20129;-70
2021/09/28 04:58:57;;;;;;;9.95;3.50;;;13.70;99.90;;;;;;2084372;28;20013;-70
2021/09/28 04:59:58;;;;;;;9.85;2.88;;;13.70;99.90;;;;;;2084862;28;20515;-70
2021/09/28 05:00:58;;;;;;;9.27;3.08;;;13.70;99.90;;;;;;2085099;28;20443;-70
2021/09/28 05:01:59;;;;;;;9.13;3.10;;;13.70;99.90;;;;;;2084903;28;20018;-70
2021/09/28 05:03:00;;;;;;;10.25;3.80;;;13.70;99.90;;;;;;2081691;28;20056;-70
2021/09/28 05:04:00;;;;;;;10.68;3.33;;;13.60;99.90;;;;;;2082814;28;20104;-70
2021/09/28 05:05:01;;;;;;;9.00;3.22;;;13.70;99.90;;;;;;2082085;28;20048;-71
2021/09/28 05:06:01;;;;;;;10.63;3.22;;;13.60;99.90;;;;;;2082750;28;20100;-71
2021/09/28 05:07:02;;;;;;;9.35;2.75;;;13.70;99.90;;;;;;2082068;28;20027;-70
2021/09/28 05:08:03;;;;;;;7.85;2.92;;;13.70;99.90;;;;;;2082203;28;20100;-71
2021/09/28 05:09:04;;;;;;;6.07;2.35;;;13.60;99.90;;;;;;2079741;28;20028;-70
2021/09/28 05:10:05;;;;;;;9.30;2.63;;;13.60;99.90;;;;;;2081333;28;20080;-70
2021/09/28 05:11:08;;;;;;;10.95;2.92;;;13.70;99.90;;;;;;2082146;28;20052;-70
2021/09/28 05:12:09;;;;;;;7.80;2.55;;;13.60;99.90;;;;;;2081878;28;20018;-71
2021/09/28 05:13:10;;;;;;;8.38;3.25;;;13.60;99.90;;;;;;2081378;28;20021;-71
2021/09/28 05:14:11;;;;;;;6.53;2.58;;;13.60;99.90;;;;;;2081999;28;20072;-71
2021/09/28 05:15:11;;;;;;;6.65;2.47;;;13.60;99.90;;;;;;2084172;28;20480;-71
2021/09/28 05:16:12;;;;;;;10.13;2.75;;;13.60;99.90;;;;;;2079959;28;20021;-71